sensor_id;sensor_type;location;lat;lon;timestamp;P1;durP1;ratioP1;P2;durP2;ratioP2
7029;SDS011;3556;53.500;10.176;2024-02-21T00:00:45;47.53;;;18.53;;
7029;SDS011;3556;53.500;10.176;2024-02-21T00:03:10;48.73;;;17.47;;
7029;SDS011;3556;53.500;10.176;2024-02-21T00:05:36;45.73;;;17.93;;
7029;SDS011;3556;53.500;10.176;2024-02-21T00:08:02;56.67;;;19.43;;
7029;SDS011;3556;53.500;10.176;2024-02-21T00:10:30;49.87;;;18.50;;
7029;SDS011;3556;53.500;10.176;2024-02-21T00:13:00;54.47;;;18.30;;
7029;SDS011;3556;53.500;10.176;2024-02-21T00:15:26;49.83;;;19.00;;
7029;SDS011;3556;53.500;10.176;2024-02-21T00:17:52;46.90;;;17.83;;
7029;SDS011;3556;53.500;10.176;2024-02-21T00:20:17;48.27;;;17.70;;
7029;SDS011;3556;53.500;10.176;2024-02-21T00:22:43;51.07;;;19.23;;
7029;SDS011;3556;53.500;10.176;2024-02-21T00:25:09;44.67;;;18.13;;
7029;SDS011;3556;53.500;10.176;2024-02-21T00:27:35;50.33;;;18.80;;
7029;SDS011;3556;53.500;10.176;2024-02-21T00:30:01;59.50;;;19.40;;
7029;SDS011;3556;53.500;10.176;2024-02-21T00:32:27;56.90;;;19.40;;
7029;SDS011;3556;53.500;10.176;2024-02-21T00:34:52;56.00;;;19.13;;
7029;SDS011;3556;53.500;10.176;2024-02-21T00:37:18;51.40;;;19.63;;
7029;SDS011;3556;53.500;10.176;2024-02-21T00:39:43;48.47;;;19.37;;
7029;SDS011;3556;53.500;10.176;2024-02-21T00:42:09;46.23;;;18.30;;
7029;SDS011;3556;53.500;10.176;2024-02-21T00:44:35;52.57;;;19.00;;
7029;SDS011;3556;53.500;10.176;2024-02-21T00:47:00;48.40;;;18.37;;
7029;SDS011;3556;53.500;10.176;2024-02-21T00:49:26;50.63;;;17.80;;
7029;SDS011;3556;53.500;10.176;2024-02-21T00:51:52;43.53;;;19.63;;
7029;SDS011;3556;53.500;10.176;2024-02-21T00:54:17;46.63;;;18.17;;
7029;SDS011;3556;53.500;10.176;2024-02-21T00:56:43;55.40;;;19.30;;
7029;SDS011;3556;53.500;10.176;2024-02-21T00:59:08;48.07;;;19.97;;
7029;SDS011;3556;53.500;10.176;2024-02-21T01:01:34;44.00;;;19.10;;
7029;SDS011;3556;53.500;10.176;2024-02-21T01:04:00;48.77;;;19.60;;
7029;SDS011;3556;53.500;10.176;2024-02-21T01:06:25;56.03;;;20.07;;
7029;SDS011;3556;53.500;10.176;2024-02-21T01:08:51;43.37;;;19.40;;
7029;SDS011;3556;53.500;10.176;2024-02-21T01:11:17;47.47;;;19.77;;
7029;SDS011;3556;53.500;10.176;2024-02-21T01:13:43;50.87;;;21.17;;
7029;SDS011;3556;53.500;10.176;2024-02-21T01:16:09;58.73;;;21.37;;
7029;SDS011;3556;53.500;10.176;2024-02-21T01:18:36;54.10;;;20.33;;
7029;SDS011;3556;53.500;10.176;2024-02-21T01:21:03;66.37;;;22.70;;
7029;SDS011;3556;53.500;10.176;2024-02-21T01:23:32;52.10;;;21.87;;
7029;SDS011;3556;53.500;10.176;2024-02-21T01:26:01;57.37;;;21.17;;
7029;SDS011;3556;53.500;10.176;2024-02-21T01:28:27;55.13;;;22.13;;
7029;SDS011;3556;53.500;10.176;2024-02-21T01:30:53;55.57;;;23.33;;
7029;SDS011;3556;53.500;10.176;2024-02-21T01:33:18;55.83;;;23.10;;
7029;SDS011;3556;53.500;10.176;2024-02-21T01:35:44;52.10;;;21.43;;
7029;SDS011;3556;53.500;10.176;2024-02-21T01:38:10;57.17;;;21.60;;
7029;SDS011;3556;53.500;10.176;2024-02-21T01:40:37;58.27;;;22.07;;
7029;SDS011;3556;53.500;10.176;2024-02-21T01:43:03;61.50;;;21.80;;
7029;SDS011;3556;53.500;10.176;2024-02-21T01:45:29;58.97;;;22.83;;
7029;SDS011;3556;53.500;10.176;2024-02-21T01:47:54;51.27;;;20.60;;
7029;SDS011;3556;53.500;10.176;2024-02-21T01:50:20;50.83;;;20.87;;
7029;SDS011;3556;53.500;10.176;2024-02-21T01:52:48;48.23;;;20.20;;
7029;SDS011;3556;53.500;10.176;2024-02-21T01:55:15;46.50;;;20.10;;
7029;SDS011;3556;53.500;10.176;2024-02-21T01:57:42;49.43;;;20.40;;
7029;SDS011;3556;53.500;10.176;2024-02-21T02:00:10;46.70;;;20.90;;
7029;SDS011;3556;53.500;10.176;2024-02-21T02:02:38;50.83;;;21.33;;
7029;SDS011;3556;53.500;10.176;2024-02-21T02:05:04;44.20;;;20.50;;
7029;SDS011;3556;53.500;10.176;2024-02-21T02:07:31;45.03;;;20.37;;
7029;SDS011;3556;53.500;10.176;2024-02-21T02:09:57;44.93;;;20.53;;
7029;SDS011;3556;53.500;10.176;2024-02-21T02:12:22;50.17;;;21.30;;
7029;SDS011;3556;53.500;10.176;2024-02-21T02:14:59;42.20;;;20.40;;
7029;SDS011;3556;53.500;10.176;2024-02-21T02:17:25;46.90;;;20.67;;
7029;SDS011;3556;53.500;10.176;2024-02-21T02:19:51;46.57;;;20.70;;
7029;SDS011;3556;53.500;10.176;2024-02-21T02:22:19;51.90;;;21.80;;
7029;SDS011;3556;53.500;10.176;2024-02-21T02:24:48;55.63;;;21.80;;
7029;SDS011;3556;53.500;10.176;2024-02-21T02:27:14;60.00;;;21.90;;
7029;SDS011;3556;53.500;10.176;2024-02-21T02:29:39;55.83;;;21.67;;
7029;SDS011;3556;53.500;10.176;2024-02-21T02:32:05;58.80;;;23.20;;
7029;SDS011;3556;53.500;10.176;2024-02-21T02:34:31;52.80;;;21.30;;
7029;SDS011;3556;53.500;10.176;2024-02-21T02:36:56;60.00;;;22.40;;
7029;SDS011;3556;53.500;10.176;2024-02-21T02:39:22;54.80;;;22.93;;
7029;SDS011;3556;53.500;10.176;2024-02-21T02:41:48;59.40;;;24.20;;
7029;SDS011;3556;53.500;10.176;2024-02-21T02:44:13;60.20;;;23.40;;
7029;SDS011;3556;53.500;10.176;2024-02-21T02:46:42;61.93;;;23.30;;
7029;SDS011;3556;53.500;10.176;2024-02-21T02:49:08;62.27;;;24.87;;
7029;SDS011;3556;53.500;10.176;2024-02-21T02:51:34;63.53;;;23.77;;
7029;SDS011;3556;53.500;10.176;2024-02-21T02:54:00;64.10;;;24.10;;
7029;SDS011;3556;53.500;10.176;2024-02-21T02:56:25;56.13;;;24.50;;
7029;SDS011;3556;53.500;10.176;2024-02-21T02:58:51;66.87;;;23.00;;
7029;SDS011;3556;53.500;10.176;2024-02-21T03:01:16;63.07;;;24.23;;
7029;SDS011;3556;53.500;10.176;2024-02-21T03:03:42;67.27;;;26.10;;
7029;SDS011;3556;53.500;10.176;2024-02-21T03:06:08;59.20;;;25.30;;
7029;SDS011;3556;53.500;10.176;2024-02-21T03:08:33;61.93;;;25.60;;
7029;SDS011;3556;53.500;10.176;2024-02-21T03:10:59;58.13;;;24.27;;
7029;SDS011;3556;53.500;10.176;2024-02-21T03:13:25;68.60;;;25.60;;
7029;SDS011;3556;53.500;10.176;2024-02-21T03:15:51;76.37;;;26.20;;
7029;SDS011;3556;53.500;10.176;2024-02-21T03:18:16;60.73;;;24.60;;
7029;SDS011;3556;53.500;10.176;2024-02-21T03:20:42;60.27;;;24.60;;
7029;SDS011;3556;53.500;10.176;2024-02-21T03:23:07;71.53;;;25.10;;
7029;SDS011;3556;53.500;10.176;2024-02-21T03:25:33;71.47;;;23.57;;
7029;SDS011;3556;53.500;10.176;2024-02-21T03:27:59;70.07;;;25.50;;
7029;SDS011;3556;53.500;10.176;2024-02-21T03:30:24;56.83;;;24.20;;
7029;SDS011;3556;53.500;10.176;2024-02-21T03:32:50;63.93;;;23.30;;
7029;SDS011;3556;53.500;10.176;2024-02-21T03:35:16;65.33;;;23.73;;
7029;SDS011;3556;53.500;10.176;2024-02-21T03:37:41;56.20;;;23.90;;
7029;SDS011;3556;53.500;10.176;2024-02-21T03:40:09;61.37;;;23.00;;
7029;SDS011;3556;53.500;10.176;2024-02-21T03:42:35;59.93;;;25.03;;
7029;SDS011;3556;53.500;10.176;2024-02-21T03:45:01;62.00;;;23.37;;
7029;SDS011;3556;53.500;10.176;2024-02-21T03:47:26;59.20;;;24.27;;
7029;SDS011;3556;53.500;10.176;2024-02-21T03:49:52;56.97;;;23.37;;
7029;SDS011;3556;53.500;10.176;2024-02-21T03:52:18;64.13;;;23.60;;
7029;SDS011;3556;53.500;10.176;2024-02-21T03:54:43;59.23;;;22.70;;
7029;SDS011;3556;53.500;10.176;2024-02-21T03:57:09;57.83;;;23.33;;
7029;SDS011;3556;53.500;10.176;2024-02-21T03:59:35;52.60;;;22.40;;
7029;SDS011;3556;53.500;10.176;2024-02-21T04:02:00;57.30;;;22.77;;
7029;SDS011;3556;53.500;10.176;2024-02-21T04:04:28;59.60;;;23.00;;
7029;SDS011;3556;53.500;10.176;2024-02-21T04:06:54;66.07;;;23.33;;
7029;SDS011;3556;53.500;10.176;2024-02-21T04:09:20;56.00;;;22.47;;
7029;SDS011;3556;53.500;10.176;2024-02-21T04:11:45;55.83;;;23.07;;
7029;SDS011;3556;53.500;10.176;2024-02-21T04:14:11;56.27;;;23.40;;
7029;SDS011;3556;53.500;10.176;2024-02-21T04:16:36;65.00;;;23.30;;
7029;SDS011;3556;53.500;10.176;2024-02-21T04:19:05;61.17;;;23.90;;
7029;SDS011;3556;53.500;10.176;2024-02-21T04:21:30;60.77;;;23.10;;
7029;SDS011;3556;53.500;10.176;2024-02-21T04:23:56;54.50;;;23.20;;
7029;SDS011;3556;53.500;10.176;2024-02-21T04:26:22;53.07;;;22.90;;
7029;SDS011;3556;53.500;10.176;2024-02-21T04:28:47;64.20;;;23.93;;
7029;SDS011;3556;53.500;10.176;2024-02-21T04:31:13;60.97;;;22.70;;
7029;SDS011;3556;53.500;10.176;2024-02-21T04:33:38;55.40;;;23.07;;
7029;SDS011;3556;53.500;10.176;2024-02-21T04:36:04;55.27;;;23.37;;
7029;SDS011;3556;53.500;10.176;2024-02-21T04:38:30;49.90;;;21.40;;
7029;SDS011;3556;53.500;10.176;2024-02-21T04:40:56;50.00;;;22.60;;
7029;SDS011;3556;53.500;10.176;2024-02-21T04:43:23;51.57;;;21.73;;
7029;SDS011;3556;53.500;10.176;2024-02-21T04:45:50;49.60;;;21.37;;
7029;SDS011;3556;53.500;10.176;2024-02-21T04:48:16;57.30;;;22.30;;
7029;SDS011;3556;53.500;10.176;2024-02-21T04:50:41;55.53;;;23.50;;
7029;SDS011;3556;53.500;10.176;2024-02-21T04:53:07;66.03;;;22.10;;
7029;SDS011;3556;53.500;10.176;2024-02-21T04:55:33;58.97;;;22.60;;
7029;SDS011;3556;53.500;10.176;2024-02-21T04:57:58;53.00;;;22.30;;
7029;SDS011;3556;53.500;10.176;2024-02-21T05:00:25;50.40;;;21.50;;
7029;SDS011;3556;53.500;10.176;2024-02-21T05:02:51;57.23;;;22.37;;
7029;SDS011;3556;53.500;10.176;2024-02-21T05:05:16;46.23;;;21.03;;
7029;SDS011;3556;53.500;10.176;2024-02-21T05:07:42;55.67;;;22.57;;
7029;SDS011;3556;53.500;10.176;2024-02-21T05:10:08;49.17;;;21.20;;
7029;SDS011;3556;53.500;10.176;2024-02-21T05:12:34;52.73;;;20.77;;
7029;SDS011;3556;53.500;10.176;2024-02-21T05:15:00;47.87;;;22.40;;
7029;SDS011;3556;53.500;10.176;2024-02-21T05:17:26;50.53;;;22.27;;
7029;SDS011;3556;53.500;10.176;2024-02-21T05:19:51;53.40;;;20.70;;
7029;SDS011;3556;53.500;10.176;2024-02-21T05:22:17;45.47;;;19.60;;
7029;SDS011;3556;53.500;10.176;2024-02-21T05:24:42;47.07;;;20.83;;
7029;SDS011;3556;53.500;10.176;2024-02-21T05:27:08;49.20;;;19.27;;
7029;SDS011;3556;53.500;10.176;2024-02-21T05:29:34;53.93;;;19.73;;
7029;SDS011;3556;53.500;10.176;2024-02-21T05:32:00;47.93;;;19.40;;
7029;SDS011;3556;53.500;10.176;2024-02-21T05:34:25;42.00;;;18.50;;
7029;SDS011;3556;53.500;10.176;2024-02-21T05:36:51;39.30;;;17.97;;
7029;SDS011;3556;53.500;10.176;2024-02-21T05:39:17;43.40;;;19.77;;
7029;SDS011;3556;53.500;10.176;2024-02-21T05:41:43;38.83;;;17.20;;
7029;SDS011;3556;53.500;10.176;2024-02-21T05:44:10;38.80;;;17.20;;
7029;SDS011;3556;53.500;10.176;2024-02-21T05:46:35;34.43;;;17.10;;
7029;SDS011;3556;53.500;10.176;2024-02-21T05:49:01;36.70;;;16.67;;
7029;SDS011;3556;53.500;10.176;2024-02-21T05:51:27;35.30;;;16.57;;
7029;SDS011;3556;53.500;10.176;2024-02-21T05:53:52;37.63;;;15.47;;
7029;SDS011;3556;53.500;10.176;2024-02-21T05:56:18;32.63;;;15.13;;
7029;SDS011;3556;53.500;10.176;2024-02-21T05:58:44;33.57;;;14.80;;
7029;SDS011;3556;53.500;10.176;2024-02-21T06:01:10;29.33;;;14.70;;
7029;SDS011;3556;53.500;10.176;2024-02-21T06:03:35;30.20;;;14.90;;
7029;SDS011;3556;53.500;10.176;2024-02-21T06:06:01;31.13;;;14.97;;
7029;SDS011;3556;53.500;10.176;2024-02-21T06:08:27;25.20;;;12.70;;
7029;SDS011;3556;53.500;10.176;2024-02-21T06:10:53;29.20;;;14.10;;
7029;SDS011;3556;53.500;10.176;2024-02-21T06:13:22;26.80;;;12.60;;
7029;SDS011;3556;53.500;10.176;2024-02-21T06:15:50;24.33;;;12.00;;
7029;SDS011;3556;53.500;10.176;2024-02-21T06:18:19;26.30;;;11.83;;
7029;SDS011;3556;53.500;10.176;2024-02-21T06:20:45;19.20;;;10.87;;
7029;SDS011;3556;53.500;10.176;2024-02-21T06:23:11;21.67;;;11.10;;
7029;SDS011;3556;53.500;10.176;2024-02-21T06:25:37;21.37;;;11.63;;
7029;SDS011;3556;53.500;10.176;2024-02-21T06:28:04;24.67;;;11.13;;
7029;SDS011;3556;53.500;10.176;2024-02-21T06:30:30;23.30;;;11.20;;
7029;SDS011;3556;53.500;10.176;2024-02-21T06:32:56;21.70;;;11.33;;
7029;SDS011;3556;53.500;10.176;2024-02-21T06:35:21;17.97;;;10.23;;
7029;SDS011;3556;53.500;10.176;2024-02-21T06:37:49;19.00;;;10.37;;
7029;SDS011;3556;53.500;10.176;2024-02-21T06:40:20;20.33;;;10.50;;
7029;SDS011;3556;53.500;10.176;2024-02-21T06:42:47;22.13;;;10.80;;
7029;SDS011;3556;53.500;10.176;2024-02-21T06:45:13;21.30;;;10.80;;
7029;SDS011;3556;53.500;10.176;2024-02-21T06:47:39;19.17;;;10.00;;
7029;SDS011;3556;53.500;10.176;2024-02-21T06:50:05;18.27;;;9.67;;
7029;SDS011;3556;53.500;10.176;2024-02-21T06:52:30;15.70;;;9.20;;
7029;SDS011;3556;53.500;10.176;2024-02-21T06:54:56;15.77;;;9.27;;
7029;SDS011;3556;53.500;10.176;2024-02-21T06:57:22;16.37;;;8.77;;
7029;SDS011;3556;53.500;10.176;2024-02-21T06:59:48;14.27;;;8.13;;
7029;SDS011;3556;53.500;10.176;2024-02-21T07:02:13;25.00;;;9.17;;
7029;SDS011;3556;53.500;10.176;2024-02-21T07:04:39;14.97;;;8.73;;
7029;SDS011;3556;53.500;10.176;2024-02-21T07:07:05;17.53;;;9.43;;
7029;SDS011;3556;53.500;10.176;2024-02-21T07:09:30;15.33;;;9.07;;
7029;SDS011;3556;53.500;10.176;2024-02-21T07:12:00;20.10;;;8.63;;
7029;SDS011;3556;53.500;10.176;2024-02-21T07:14:27;14.57;;;8.70;;
7029;SDS011;3556;53.500;10.176;2024-02-21T07:16:53;18.17;;;9.13;;
7029;SDS011;3556;53.500;10.176;2024-02-21T07:19:19;15.33;;;8.80;;
7029;SDS011;3556;53.500;10.176;2024-02-21T07:21:45;15.07;;;9.20;;
7029;SDS011;3556;53.500;10.176;2024-02-21T07:24:11;17.37;;;9.30;;
7029;SDS011;3556;53.500;10.176;2024-02-21T07:26:37;17.00;;;9.27;;
7029;SDS011;3556;53.500;10.176;2024-02-21T07:29:06;16.67;;;9.40;;
7029;SDS011;3556;53.500;10.176;2024-02-21T07:31:31;16.93;;;9.33;;
7029;SDS011;3556;53.500;10.176;2024-02-21T07:34:06;17.60;;;8.80;;
7029;SDS011;3556;53.500;10.176;2024-02-21T07:36:32;16.57;;;9.30;;
7029;SDS011;3556;53.500;10.176;2024-02-21T07:38:58;15.57;;;9.90;;
7029;SDS011;3556;53.500;10.176;2024-02-21T07:41:24;16.70;;;8.80;;
7029;SDS011;3556;53.500;10.176;2024-02-21T07:43:51;14.70;;;9.40;;
7029;SDS011;3556;53.500;10.176;2024-02-21T07:46:17;15.40;;;9.60;;
7029;SDS011;3556;53.500;10.176;2024-02-21T07:48:46;16.50;;;9.23;;
7029;SDS011;3556;53.500;10.176;2024-02-21T07:51:12;14.47;;;9.40;;
7029;SDS011;3556;53.500;10.176;2024-02-21T07:53:40;13.60;;;8.37;;
7029;SDS011;3556;53.500;10.176;2024-02-21T07:56:13;14.67;;;9.13;;
7029;SDS011;3556;53.500;10.176;2024-02-21T07:58:40;13.27;;;8.57;;
7029;SDS011;3556;53.500;10.176;2024-02-21T08:01:06;13.70;;;8.50;;
7029;SDS011;3556;53.500;10.176;2024-02-21T08:03:32;13.37;;;7.80;;
7029;SDS011;3556;53.500;10.176;2024-02-21T08:05:57;12.27;;;7.30;;
7029;SDS011;3556;53.500;10.176;2024-02-21T08:08:23;9.87;;;7.37;;
7029;SDS011;3556;53.500;10.176;2024-02-21T08:10:49;10.40;;;7.27;;
7029;SDS011;3556;53.500;10.176;2024-02-21T08:13:15;8.80;;;6.50;;
7029;SDS011;3556;53.500;10.176;2024-02-21T08:15:41;10.63;;;6.93;;
7029;SDS011;3556;53.500;10.176;2024-02-21T08:18:07;7.77;;;6.00;;
7029;SDS011;3556;53.500;10.176;2024-02-21T08:20:33;10.57;;;6.13;;
7029;SDS011;3556;53.500;10.176;2024-02-21T08:22:58;8.90;;;6.00;;
7029;SDS011;3556;53.500;10.176;2024-02-21T08:25:24;6.77;;;5.60;;
7029;SDS011;3556;53.500;10.176;2024-02-21T08:27:49;6.37;;;5.30;;
7029;SDS011;3556;53.500;10.176;2024-02-21T08:30:16;10.27;;;5.60;;
7029;SDS011;3556;53.500;10.176;2024-02-21T08:32:42;7.10;;;4.83;;
7029;SDS011;3556;53.500;10.176;2024-02-21T08:35:08;6.33;;;5.03;;
7029;SDS011;3556;53.500;10.176;2024-02-21T08:37:34;7.87;;;5.20;;
7029;SDS011;3556;53.500;10.176;2024-02-21T08:39:59;7.57;;;5.93;;
7029;SDS011;3556;53.500;10.176;2024-02-21T08:42:33;11.93;;;6.53;;
7029;SDS011;3556;53.500;10.176;2024-02-21T08:45:00;7.97;;;6.00;;
7029;SDS011;3556;53.500;10.176;2024-02-21T08:47:25;8.67;;;4.93;;
7029;SDS011;3556;53.500;10.176;2024-02-21T08:49:52;9.50;;;4.63;;
7029;SDS011;3556;53.500;10.176;2024-02-21T08:52:17;8.83;;;3.90;;
7029;SDS011;3556;53.500;10.176;2024-02-21T08:54:43;13.00;;;3.80;;
7029;SDS011;3556;53.500;10.176;2024-02-21T08:57:09;12.50;;;3.80;;
7029;SDS011;3556;53.500;10.176;2024-02-21T08:59:34;16.70;;;3.40;;
7029;SDS011;3556;53.500;10.176;2024-02-21T09:02:00;14.47;;;3.87;;
7029;SDS011;3556;53.500;10.176;2024-02-21T09:04:27;12.10;;;3.07;;
7029;SDS011;3556;53.500;10.176;2024-02-21T09:06:53;10.87;;;3.40;;
7029;SDS011;3556;53.500;10.176;2024-02-21T09:09:19;16.97;;;3.57;;
7029;SDS011;3556;53.500;10.176;2024-02-21T09:11:45;12.10;;;3.63;;
7029;SDS011;3556;53.500;10.176;2024-02-21T09:14:10;10.90;;;3.57;;
7029;SDS011;3556;53.500;10.176;2024-02-21T09:16:36;6.80;;;3.70;;
7029;SDS011;3556;53.500;10.176;2024-02-21T09:19:02;9.80;;;4.07;;
7029;SDS011;3556;53.500;10.176;2024-02-21T09:21:28;13.40;;;4.27;;
7029;SDS011;3556;53.500;10.176;2024-02-21T09:23:53;22.83;;;4.13;;
7029;SDS011;3556;53.500;10.176;2024-02-21T09:26:19;17.40;;;4.00;;
7029;SDS011;3556;53.500;10.176;2024-02-21T09:28:45;24.23;;;4.97;;
7029;SDS011;3556;53.500;10.176;2024-02-21T09:31:10;19.87;;;5.23;;
7029;SDS011;3556;53.500;10.176;2024-02-21T09:33:36;15.83;;;4.60;;
7029;SDS011;3556;53.500;10.176;2024-02-21T09:36:02;13.40;;;3.90;;
7029;SDS011;3556;53.500;10.176;2024-02-21T09:38:30;11.80;;;3.87;;
7029;SDS011;3556;53.500;10.176;2024-02-21T09:41:00;12.73;;;3.70;;
7029;SDS011;3556;53.500;10.176;2024-02-21T09:43:44;9.70;;;3.63;;
7029;SDS011;3556;53.500;10.176;2024-02-21T09:46:17;12.83;;;3.70;;
7029;SDS011;3556;53.500;10.176;2024-02-21T09:51:31;6.70;;;3.30;;
7029;SDS011;3556;53.500;10.176;2024-02-21T09:53:59;8.43;;;3.87;;
7029;SDS011;3556;53.500;10.176;2024-02-21T09:56:25;8.53;;;3.60;;
7029;SDS011;3556;53.500;10.176;2024-02-21T09:58:51;8.63;;;3.20;;
7029;SDS011;3556;53.500;10.176;2024-02-21T10:01:16;12.63;;;3.53;;
7029;SDS011;3556;53.500;10.176;2024-02-21T10:03:42;6.43;;;3.90;;
7029;SDS011;3556;53.500;10.176;2024-02-21T10:06:08;7.90;;;4.00;;
7029;SDS011;3556;53.500;10.176;2024-02-21T10:08:35;8.03;;;3.87;;
7029;SDS011;3556;53.500;10.176;2024-02-21T10:11:00;12.73;;;5.37;;
7029;SDS011;3556;53.500;10.176;2024-02-21T10:13:28;9.80;;;5.47;;
7029;SDS011;3556;53.500;10.176;2024-02-21T10:16:27;8.50;;;5.33;;
7029;SDS011;3556;53.500;10.176;2024-02-21T10:18:46;10.70;;;6.30;;
7029;SDS011;3556;53.500;10.176;2024-02-21T10:21:12;17.37;;;7.80;;
7029;SDS011;3556;53.500;10.176;2024-02-21T10:23:55;16.30;;;8.90;;
7029;SDS011;3556;53.500;10.176;2024-02-21T10:26:21;19.77;;;11.10;;
7029;SDS011;3556;53.500;10.176;2024-02-21T10:28:47;20.10;;;10.53;;
7029;SDS011;3556;53.500;10.176;2024-02-21T10:33:58;24.20;;;12.23;;
7029;SDS011;3556;53.500;10.176;2024-02-21T10:36:27;25.90;;;12.00;;
7029;SDS011;3556;53.500;10.176;2024-02-21T10:38:53;29.30;;;13.37;;
7029;SDS011;3556;53.500;10.176;2024-02-21T10:41:19;26.60;;;13.33;;
7029;SDS011;3556;53.500;10.176;2024-02-21T10:43:47;30.70;;;14.30;;
7029;SDS011;3556;53.500;10.176;2024-02-21T10:46:19;33.43;;;13.93;;
7029;SDS011;3556;53.500;10.176;2024-02-21T10:48:46;29.80;;;14.50;;
7029;SDS011;3556;53.500;10.176;2024-02-21T10:51:19;35.43;;;14.50;;
7029;SDS011;3556;53.500;10.176;2024-02-21T10:58:53;32.20;;;15.27;;
7029;SDS011;3556;53.500;10.176;2024-02-21T11:01:20;37.80;;;16.07;;
7029;SDS011;3556;53.500;10.176;2024-02-21T11:03:48;36.50;;;15.63;;
7029;SDS011;3556;53.500;10.176;2024-02-21T11:06:18;39.27;;;16.40;;
7029;SDS011;3556;53.500;10.176;2024-02-21T11:08:45;37.93;;;16.33;;
7029;SDS011;3556;53.500;10.176;2024-02-21T11:11:12;43.97;;;14.27;;
7029;SDS011;3556;53.500;10.176;2024-02-21T11:13:43;33.63;;;15.00;;
7029;SDS011;3556;53.500;10.176;2024-02-21T11:16:11;35.13;;;14.60;;
7029;SDS011;3556;53.500;10.176;2024-02-21T11:18:46;32.67;;;14.30;;
7029;SDS011;3556;53.500;10.176;2024-02-21T11:21:12;34.67;;;13.93;;
7029;SDS011;3556;53.500;10.176;2024-02-21T11:23:37;34.63;;;13.70;;
7029;SDS011;3556;53.500;10.176;2024-02-21T11:26:03;37.80;;;14.07;;
7029;SDS011;3556;53.500;10.176;2024-02-21T11:28:33;34.17;;;12.80;;
7029;SDS011;3556;53.500;10.176;2024-02-21T11:31:08;27.73;;;12.83;;
7029;SDS011;3556;53.500;10.176;2024-02-21T11:33:39;27.03;;;12.80;;
7029;SDS011;3556;53.500;10.176;2024-02-21T11:36:08;23.77;;;12.07;;
7029;SDS011;3556;53.500;10.176;2024-02-21T11:38:34;31.20;;;12.90;;
7029;SDS011;3556;53.500;10.176;2024-02-21T11:41:00;24.37;;;11.77;;
7029;SDS011;3556;53.500;10.176;2024-02-21T11:43:26;25.63;;;10.80;;
7029;SDS011;3556;53.500;10.176;2024-02-21T11:45:59;27.57;;;11.80;;
7029;SDS011;3556;53.500;10.176;2024-02-21T11:48:26;26.50;;;10.83;;
7029;SDS011;3556;53.500;10.176;2024-02-21T11:50:52;25.10;;;11.33;;
7029;SDS011;3556;53.500;10.176;2024-02-21T11:53:21;19.50;;;10.63;;
7029;SDS011;3556;53.500;10.176;2024-02-21T11:55:48;21.53;;;11.20;;
7029;SDS011;3556;53.500;10.176;2024-02-21T11:58:14;33.70;;;11.33;;
7029;SDS011;3556;53.500;10.176;2024-02-21T12:00:40;23.90;;;11.60;;
7029;SDS011;3556;53.500;10.176;2024-02-21T12:03:07;21.37;;;11.00;;
7029;SDS011;3556;53.500;10.176;2024-02-21T12:05:33;29.80;;;11.57;;
7029;SDS011;3556;53.500;10.176;2024-02-21T12:07:59;20.73;;;11.17;;
7029;SDS011;3556;53.500;10.176;2024-02-21T12:10:25;20.70;;;10.60;;
7029;SDS011;3556;53.500;10.176;2024-02-21T12:13:04;29.07;;;11.60;;
7029;SDS011;3556;53.500;10.176;2024-02-21T12:15:32;23.53;;;11.63;;
7029;SDS011;3556;53.500;10.176;2024-02-21T12:17:57;30.30;;;12.30;;
7029;SDS011;3556;53.500;10.176;2024-02-21T12:20:25;27.43;;;12.20;;
7029;SDS011;3556;53.500;10.176;2024-02-21T12:22:50;31.53;;;12.40;;
7029;SDS011;3556;53.500;10.176;2024-02-21T12:27:51;27.13;;;12.97;;
7029;SDS011;3556;53.500;10.176;2024-02-21T12:30:17;27.37;;;12.23;;
7029;SDS011;3556;53.500;10.176;2024-02-21T12:32:44;24.70;;;12.97;;
7029;SDS011;3556;53.500;10.176;2024-02-21T12:35:10;30.70;;;13.60;;
7029;SDS011;3556;53.500;10.176;2024-02-21T12:37:36;26.07;;;12.63;;
7029;SDS011;3556;53.500;10.176;2024-02-21T12:40:03;30.20;;;13.20;;
7029;SDS011;3556;53.500;10.176;2024-02-21T12:42:31;26.90;;;12.70;;
7029;SDS011;3556;53.500;10.176;2024-02-21T12:44:58;25.40;;;12.67;;
7029;SDS011;3556;53.500;10.176;2024-02-21T12:47:24;24.83;;;13.77;;
7029;SDS011;3556;53.500;10.176;2024-02-21T12:49:51;29.63;;;13.73;;
7029;SDS011;3556;53.500;10.176;2024-02-21T12:52:17;35.50;;;14.33;;
7029;SDS011;3556;53.500;10.176;2024-02-21T12:54:43;30.63;;;14.00;;
7029;SDS011;3556;53.500;10.176;2024-02-21T12:57:09;31.83;;;14.00;;
7029;SDS011;3556;53.500;10.176;2024-02-21T12:59:34;27.97;;;12.67;;
7029;SDS011;3556;53.500;10.176;2024-02-21T13:02:00;36.80;;;13.90;;
7029;SDS011;3556;53.500;10.176;2024-02-21T13:04:25;31.90;;;14.40;;
7029;SDS011;3556;53.500;10.176;2024-02-21T13:06:51;36.03;;;15.10;;
7029;SDS011;3556;53.500;10.176;2024-02-21T13:09:17;33.50;;;14.57;;
7029;SDS011;3556;53.500;10.176;2024-02-21T13:11:43;32.33;;;15.03;;
7029;SDS011;3556;53.500;10.176;2024-02-21T13:14:11;29.73;;;15.03;;
7029;SDS011;3556;53.500;10.176;2024-02-21T13:16:37;34.83;;;15.70;;
7029;SDS011;3556;53.500;10.176;2024-02-21T13:19:07;33.13;;;15.90;;
7029;SDS011;3556;53.500;10.176;2024-02-21T13:21:33;35.40;;;14.67;;
7029;SDS011;3556;53.500;10.176;2024-02-21T13:24:00;33.63;;;15.00;;
7029;SDS011;3556;53.500;10.176;2024-02-21T13:26:26;28.40;;;15.23;;
7029;SDS011;3556;53.500;10.176;2024-02-21T13:28:51;30.13;;;15.60;;
7029;SDS011;3556;53.500;10.176;2024-02-21T13:31:17;29.50;;;14.60;;
7029;SDS011;3556;53.500;10.176;2024-02-21T13:33:43;38.03;;;15.43;;
7029;SDS011;3556;53.500;10.176;2024-02-21T13:36:11;32.57;;;14.93;;
7029;SDS011;3556;53.500;10.176;2024-02-21T13:38:37;23.70;;;14.27;;
7029;SDS011;3556;53.500;10.176;2024-02-21T13:41:06;28.23;;;15.57;;
7029;SDS011;3556;53.500;10.176;2024-02-21T13:43:32;31.90;;;13.57;;
7029;SDS011;3556;53.500;10.176;2024-02-21T13:45:59;28.03;;;13.93;;
7029;SDS011;3556;53.500;10.176;2024-02-21T13:48:27;28.43;;;14.77;;
7029;SDS011;3556;53.500;10.176;2024-02-21T13:50:54;34.20;;;14.90;;
7029;SDS011;3556;53.500;10.176;2024-02-21T13:53:20;31.70;;;14.70;;
7029;SDS011;3556;53.500;10.176;2024-02-21T13:55:46;32.90;;;15.53;;
7029;SDS011;3556;53.500;10.176;2024-02-21T13:58:12;32.13;;;16.10;;
7029;SDS011;3556;53.500;10.176;2024-02-21T14:00:37;35.23;;;14.90;;
7029;SDS011;3556;53.500;10.176;2024-02-21T14:03:03;35.53;;;15.57;;
7029;SDS011;3556;53.500;10.176;2024-02-21T14:05:29;40.83;;;15.00;;
7029;SDS011;3556;53.500;10.176;2024-02-21T14:07:55;35.00;;;15.40;;
7029;SDS011;3556;53.500;10.176;2024-02-21T14:10:21;27.00;;;14.40;;
7029;SDS011;3556;53.500;10.176;2024-02-21T14:12:47;27.77;;;14.60;;
7029;SDS011;3556;53.500;10.176;2024-02-21T14:15:15;34.00;;;14.73;;
7029;SDS011;3556;53.500;10.176;2024-02-21T14:17:41;24.67;;;14.00;;
7029;SDS011;3556;53.500;10.176;2024-02-21T14:20:07;24.57;;;14.03;;
7029;SDS011;3556;53.500;10.176;2024-02-21T14:22:33;28.60;;;14.20;;
7029;SDS011;3556;53.500;10.176;2024-02-21T14:24:59;22.43;;;13.53;;
7029;SDS011;3556;53.500;10.176;2024-02-21T14:27:25;26.87;;;13.80;;
7029;SDS011;3556;53.500;10.176;2024-02-21T14:29:51;22.30;;;12.60;;
7029;SDS011;3556;53.500;10.176;2024-02-21T14:32:18;21.57;;;13.80;;
7029;SDS011;3556;53.500;10.176;2024-02-21T14:34:45;28.47;;;14.23;;
7029;SDS011;3556;53.500;10.176;2024-02-21T14:37:10;26.03;;;13.17;;
7029;SDS011;3556;53.500;10.176;2024-02-21T14:39:36;20.20;;;12.00;;
7029;SDS011;3556;53.500;10.176;2024-02-21T14:42:02;23.80;;;11.70;;
7029;SDS011;3556;53.500;10.176;2024-02-21T14:44:28;25.23;;;12.90;;
7029;SDS011;3556;53.500;10.176;2024-02-21T14:46:53;24.80;;;12.47;;